createdAt,value
2018-07-07T00:00:15.771Z,0
2018-07-07T00:01:24.681Z,0
2018-07-07T00:02:33.585Z,0
2018-07-07T00:03:42.222Z,0
2018-07-07T00:04:50.871Z,0
2018-07-07T00:05:59.520Z,0
2018-07-07T00:07:08.166Z,0
2018-07-07T00:08:16.813Z,0
2018-07-07T00:09:25.454Z,0
2018-07-07T00:10:34.099Z,0
2018-07-07T00:11:42.745Z,0
2018-07-07T00:12:51.394Z,0
2018-07-07T00:14:00.036Z,0
2018-07-07T00:15:08.949Z,0
2018-07-07T00:16:17.595Z,0
2018-07-07T00:17:26.768Z,0
2018-07-07T00:18:35.410Z,0
2018-07-07T00:19:44.059Z,0
2018-07-07T00:20:52.703Z,0
2018-07-07T00:22:01.353Z,0
2018-07-07T00:23:09.996Z,0
2018-07-07T00:24:18.639Z,0
2018-07-07T00:25:27.287Z,0
2018-07-07T00:26:35.928Z,0
2018-07-07T00:27:44.583Z,0
2018-07-07T00:28:53.229Z,0
2018-07-07T00:30:02.417Z,0
2018-07-07T00:31:11.054Z,0
2018-07-07T00:32:19.704Z,0
2018-07-07T00:33:28.348Z,0
2018-07-07T00:34:37.266Z,0
2018-07-07T00:35:45.910Z,0
2018-07-07T00:36:54.818Z,0
2018-07-07T00:38:03.460Z,0
2018-07-07T00:39:12.107Z,0
2018-07-07T00:40:21.018Z,0
2018-07-07T00:41:29.660Z,0
2018-07-07T00:42:38.307Z,0
2018-07-07T00:43:46.952Z,0
2018-07-07T00:44:55.599Z,0
2018-07-07T00:46:04.242Z,0
2018-07-07T00:47:13.153Z,0
2018-07-07T00:48:21.798Z,0
2018-07-07T00:49:30.449Z,0
2018-07-07T00:50:39.087Z,0
2018-07-07T00:51:47.735Z,0
2018-07-07T00:52:56.651Z,0
2018-07-07T00:54:05.301Z,0
2018-07-07T00:55:13.940Z,0
2018-07-07T00:56:22.590Z,0
2018-07-07T00:57:31.234Z,0
2018-07-07T00:58:39.882Z,0
2018-07-07T00:59:48.525Z,0
2018-07-07T01:00:57.171Z,0
2018-07-07T01:02:06.079Z,0
2018-07-07T01:03:14.988Z,0
2018-07-07T01:04:23.637Z,0
2018-07-07T01:05:32.281Z,0
2018-07-07T01:06:40.926Z,0
2018-07-07T01:07:49.574Z,0
2018-07-07T01:08:58.213Z,0
2018-07-07T01:10:06.865Z,0
2018-07-07T01:11:15.778Z,0
2018-07-07T01:12:24.430Z,0
2018-07-07T01:13:33.330Z,0
2018-07-07T01:14:41.983Z,0
2018-07-07T01:15:50.623Z,0
2018-07-07T01:16:59.272Z,0
2018-07-07T01:18:07.913Z,0
2018-07-07T01:19:16.559Z,0
2018-07-07T01:20:25.200Z,0
2018-07-07T01:21:33.843Z,0
2018-07-07T01:22:42.825Z,0
2018-07-07T01:23:51.469Z,0
2018-07-07T01:25:00.114Z,0
2018-07-07T01:26:08.756Z,0
2018-07-07T01:27:17.661Z,0
2018-07-07T01:28:26.304Z,0
2018-07-07T01:29:34.953Z,0
2018-07-07T01:30:43.591Z,0
2018-07-07T01:31:52.238Z,0
2018-07-07T01:33:00.881Z,0
2018-07-07T01:34:09.526Z,0
2018-07-07T01:35:18.167Z,0
2018-07-07T01:36:26.814Z,0
2018-07-07T01:37:35.459Z,0
2018-07-07T01:38:44.105Z,0
2018-07-07T01:39:52.753Z,0
2018-07-07T01:41:01.396Z,0
2018-07-07T01:42:10.039Z,0
2018-07-07T01:43:18.686Z,0
2018-07-07T01:44:27.597Z,0
2018-07-07T01:45:36.239Z,0
2018-07-07T01:46:44.881Z,0
2018-07-07T01:47:53.526Z,0
2018-07-07T01:49:02.181Z,0
2018-07-07T01:50:10.820Z,0
2018-07-07T01:51:19.723Z,0
2018-07-07T01:52:28.365Z,0
2018-07-07T01:53:37.015Z,0
2018-07-07T01:54:45.922Z,0
2018-07-07T01:55:54.565Z,0
2018-07-07T01:57:03.246Z,0
2018-07-07T01:58:11.848Z,0
2018-07-07T01:59:20.772Z,0
2018-07-07T02:00:29.432Z,0
2018-07-07T02:01:38.068Z,0
2018-07-07T02:02:46.708Z,0
2018-07-07T02:03:55.623Z,0
2018-07-07T02:05:04.264Z,0
2018-07-07T02:06:12.916Z,0
2018-07-07T02:07:21.551Z,0
2018-07-07T02:08:30.204Z,0
2018-07-07T02:09:38.848Z,0
2018-07-07T02:10:47.494Z,0
2018-07-07T02:11:56.133Z,0
2018-07-07T02:13:04.781Z,0
2018-07-07T02:14:13.698Z,0
2018-07-07T02:15:22.344Z,0
2018-07-07T02:16:30.990Z,0
2018-07-07T02:17:39.626Z,0
2018-07-07T02:18:48.316Z,0
2018-07-07T02:19:56.911Z,0
2018-07-07T02:21:05.565Z,0
2018-07-07T02:22:14.200Z,0
2018-07-07T02:23:23.115Z,0
2018-07-07T02:24:31.755Z,0
2018-07-07T02:25:40.410Z,0
2018-07-07T02:26:49.046Z,0
2018-07-07T02:27:57.691Z,0
2018-07-07T02:29:06.332Z,0
2018-07-07T02:30:15.266Z,0
2018-07-07T02:31:23.910Z,0
2018-07-07T02:32:32.814Z,0
2018-07-07T02:33:41.455Z,0
2018-07-07T02:34:50.105Z,0
2018-07-07T02:35:58.758Z,0
2018-07-07T02:37:07.937Z,4
2018-07-07T02:38:16.594Z,4
2018-07-07T02:39:25.498Z,4
2018-07-07T02:40:34.680Z,0
2018-07-07T02:41:43.593Z,0
2018-07-07T02:42:52.245Z,4
2018-07-07T02:44:00.884Z,4
2018-07-07T02:45:09.803Z,4
2018-07-07T02:46:18.821Z,4
2018-07-07T02:47:27.366Z,8
2018-07-07T02:48:36.004Z,8
2018-07-07T02:49:44.649Z,4
2018-07-07T02:50:53.578Z,8
2018-07-07T02:52:02.223Z,8
2018-07-07T02:53:10.869Z,12
2018-07-07T02:54:19.512Z,12
2018-07-07T02:55:28.163Z,16
2018-07-07T02:56:37.328Z,16
2018-07-07T02:57:45.991Z,16
2018-07-07T02:58:54.901Z,20
2018-07-07T03:00:03.828Z,24
2018-07-07T03:01:13.037Z,28
2018-07-07T03:02:21.730Z,28
2018-07-07T03:03:30.713Z,36
2018-07-07T03:04:39.794Z,40
2018-07-07T03:05:48.681Z,40
2018-07-07T03:06:57.795Z,48
2018-07-07T03:08:06.494Z,52
2018-07-07T03:09:15.232Z,56
2018-07-07T03:10:24.071Z,60
2018-07-07T03:11:32.720Z,68
2018-07-07T03:12:41.361Z,72
2018-07-07T03:13:50.006Z,80
2018-07-07T03:14:58.657Z,88
2018-07-07T03:16:07.573Z,96
2018-07-07T03:17:16.475Z,104
2018-07-07T03:18:25.141Z,108
2018-07-07T03:19:33.770Z,120
2018-07-07T03:20:42.419Z,124
2018-07-07T03:21:51.061Z,136
2018-07-07T03:22:59.717Z,144
2018-07-07T03:24:08.624Z,156
2018-07-07T03:25:17.801Z,164
2018-07-07T03:26:26.454Z,176
2018-07-07T03:27:35.102Z,184
2018-07-07T03:28:43.738Z,196
2018-07-07T03:29:52.379Z,208
2018-07-07T03:31:01.302Z,220
2018-07-07T03:32:10.222Z,232
2018-07-07T03:33:19.129Z,248
2018-07-07T03:34:28.032Z,264
2018-07-07T03:35:36.683Z,280
2018-07-07T03:36:45.593Z,292
2018-07-07T03:37:54.235Z,304
2018-07-07T03:39:02.875Z,328
2018-07-07T03:40:11.523Z,340
2018-07-07T03:41:20.165Z,344
2018-07-07T03:42:28.811Z,348
2018-07-07T03:43:37.451Z,360
2018-07-07T03:44:46.099Z,372
2018-07-07T03:45:54.744Z,384
2018-07-07T03:47:03.392Z,400
2018-07-07T03:48:12.046Z,416
2018-07-07T03:49:20.973Z,428
2018-07-07T03:50:29.593Z,440
2018-07-07T03:51:38.242Z,460
2018-07-07T03:52:46.891Z,476
2018-07-07T03:53:55.530Z,492
2018-07-07T03:55:04.172Z,512
2018-07-07T03:56:12.815Z,536
2018-07-07T03:57:21.461Z,584
2018-07-07T03:58:30.099Z,652
2018-07-07T03:59:38.745Z,736
2018-07-07T04:00:47.392Z,784
2018-07-07T04:01:56.042Z,784
2018-07-07T04:03:04.682Z,768
2018-07-07T04:04:13.320Z,804
2018-07-07T04:05:21.962Z,900
2018-07-07T04:06:30.605Z,976
2018-07-07T04:07:39.256Z,1020
2018-07-07T04:08:47.897Z,1064
2018-07-07T04:09:56.546Z,1100
2018-07-07T04:11:05.181Z,1132
2018-07-07T04:12:13.834Z,1156
2018-07-07T04:13:22.736Z,1192
2018-07-07T04:14:31.384Z,1220
2018-07-07T04:15:40.019Z,1244
2018-07-07T04:16:48.673Z,1256
2018-07-07T04:17:57.316Z,1272
2018-07-07T04:19:06.233Z,1300
2018-07-07T04:20:14.866Z,1328
2018-07-07T04:21:23.514Z,1352
2018-07-07T04:22:32.163Z,1404
2018-07-07T04:23:40.809Z,1460
2018-07-07T04:24:49.717Z,1480
2018-07-07T04:25:58.349Z,1504
2018-07-07T04:27:06.998Z,1532
2018-07-07T04:28:15.894Z,1572
2018-07-07T04:29:24.545Z,1600
2018-07-07T04:30:33.530Z,1640
2018-07-07T04:31:42.120Z,1704
2018-07-07T04:32:50.763Z,1752
2018-07-07T04:33:59.415Z,1764
2018-07-07T04:35:08.052Z,1776
2018-07-07T04:36:16.699Z,1796
2018-07-07T04:37:25.340Z,1804
2018-07-07T04:38:33.994Z,1800
2018-07-07T04:39:42.636Z,1804
2018-07-07T04:40:51.275Z,1820
2018-07-07T04:41:59.919Z,1840
2018-07-07T04:43:08.566Z,1856
2018-07-07T04:44:17.480Z,1868
2018-07-07T04:45:26.122Z,1884
2018-07-07T04:46:34.771Z,1912
2018-07-07T04:47:43.410Z,1956
2018-07-07T04:48:52.053Z,1992
2018-07-07T04:50:00.692Z,2016
2018-07-07T04:51:09.348Z,2028
2018-07-07T04:52:18.037Z,2048
2018-07-07T04:53:26.634Z,2072
2018-07-07T04:54:35.275Z,2084
2018-07-07T04:55:44.189Z,2096
2018-07-07T04:56:52.825Z,2116
2018-07-07T04:58:01.475Z,2140
2018-07-07T04:59:10.126Z,2184
2018-07-07T05:00:18.762Z,2228
2018-07-07T05:01:27.410Z,2260
2018-07-07T05:02:36.323Z,2268
2018-07-07T05:03:44.961Z,2284
2018-07-07T05:04:53.609Z,2316
2018-07-07T05:06:02.251Z,2324
2018-07-07T05:07:10.903Z,2324
2018-07-07T05:08:19.541Z,2328
2018-07-07T05:09:28.474Z,2332
2018-07-07T05:10:37.107Z,2336
2018-07-07T05:11:45.760Z,2328
2018-07-07T05:12:54.402Z,2328
2018-07-07T05:14:03.047Z,2336
2018-07-07T05:15:11.946Z,2340
2018-07-07T05:16:20.594Z,2340
2018-07-07T05:17:29.248Z,2344
2018-07-07T05:18:37.891Z,2348
2018-07-07T05:19:46.804Z,2356
2018-07-07T05:20:55.445Z,2376
2018-07-07T05:22:04.093Z,2396
2018-07-07T05:23:12.737Z,2412
2018-07-07T05:24:21.387Z,2432
2018-07-07T05:25:30.030Z,2440
2018-07-07T05:26:38.680Z,2448
2018-07-07T05:27:47.319Z,2464
2018-07-07T05:28:56.241Z,2476
2018-07-07T05:30:04.879Z,2504
2018-07-07T05:31:13.527Z,2536
2018-07-07T05:32:22.173Z,2568
2018-07-07T05:33:30.826Z,2592
2018-07-07T05:34:39.467Z,2620
2018-07-07T05:35:48.110Z,2656
2018-07-07T05:36:57.091Z,2696
2018-07-07T05:38:05.997Z,2696
2018-07-07T05:39:14.650Z,2672
2018-07-07T05:40:23.292Z,2656
2018-07-07T05:41:31.941Z,2672
2018-07-07T05:42:40.841Z,2684
2018-07-07T05:43:49.492Z,2668
2018-07-07T05:44:58.132Z,2664
2018-07-07T05:46:06.781Z,2668
2018-07-07T05:47:15.689Z,2688
2018-07-07T05:48:24.341Z,2732
2018-07-07T05:49:32.985Z,2780
2018-07-07T05:50:41.632Z,2820
2018-07-07T05:51:50.270Z,2836
2018-07-07T05:52:58.920Z,2872
2018-07-07T05:54:07.570Z,2904
2018-07-07T05:55:16.217Z,2908
2018-07-07T05:56:24.863Z,2896
2018-07-07T05:57:33.960Z,2876
2018-07-07T05:58:42.608Z,2864
2018-07-07T05:59:51.253Z,2852
2018-07-07T06:00:59.900Z,2848
2018-07-07T06:02:09.073Z,2844
2018-07-07T06:03:17.716Z,2828
2018-07-07T06:04:26.624Z,2820
2018-07-07T06:05:35.273Z,2816
2018-07-07T06:06:43.921Z,2804
2018-07-07T06:07:52.562Z,2804
2018-07-07T06:09:01.205Z,2804
2018-07-07T06:10:09.855Z,2808
2018-07-07T06:11:18.498Z,2828
2018-07-07T06:12:27.145Z,2844
2018-07-07T06:13:35.787Z,2844
2018-07-07T06:14:44.429Z,2848
2018-07-07T06:15:53.079Z,2876
2018-07-07T06:17:01.725Z,2940
2018-07-07T06:18:10.631Z,2980
2018-07-07T06:19:19.274Z,3016
2018-07-07T06:20:27.925Z,3052
2018-07-07T06:21:36.568Z,3120
2018-07-07T06:22:45.214Z,3248
2018-07-07T06:23:53.860Z,3352
2018-07-07T06:25:02.771Z,3424
2018-07-07T06:26:11.414Z,3472
2018-07-07T06:27:20.064Z,3476
2018-07-07T06:28:28.705Z,3508
2018-07-07T06:29:37.353Z,3604
2018-07-07T06:30:45.998Z,3764
2018-07-07T06:31:54.649Z,3924
2018-07-07T06:33:03.562Z,4112
2018-07-07T06:34:12.201Z,3900
2018-07-07T06:35:20.853Z,3736
2018-07-07T06:36:29.504Z,3508
2018-07-07T06:37:38.155Z,3656
2018-07-07T06:38:46.795Z,3628
2018-07-07T06:39:55.446Z,3480
2018-07-07T06:41:04.353Z,3676
2018-07-07T06:42:13.008Z,3636
2018-07-07T06:43:22.439Z,4120
2018-07-07T06:44:31.088Z,4356
2018-07-07T06:45:39.730Z,4396
2018-07-07T06:46:48.385Z,4468
2018-07-07T06:47:57.025Z,4180
2018-07-07T06:49:05.677Z,4056
2018-07-07T06:50:14.318Z,3828
2018-07-07T06:51:22.957Z,3764
2018-07-07T06:52:31.610Z,3844
2018-07-07T06:53:40.280Z,3768
2018-07-07T06:54:48.904Z,3556
2018-07-07T06:55:57.545Z,3428
2018-07-07T06:57:06.201Z,3308
2018-07-07T06:58:14.846Z,2944
2018-07-07T06:59:23.498Z,3276
2018-07-07T07:00:32.137Z,3248
2018-07-07T07:01:40.794Z,3368
2018-07-07T07:02:49.714Z,3384
2018-07-07T07:03:58.628Z,3436
2018-07-07T07:05:07.266Z,3392
2018-07-07T07:06:15.916Z,3484
2018-07-07T07:07:24.568Z,3556
2018-07-07T07:08:33.245Z,3580
2018-07-07T07:09:41.894Z,3544
2018-07-07T07:10:50.534Z,3652
2018-07-07T07:11:59.862Z,3696
2018-07-07T07:13:08.934Z,3728
2018-07-07T07:14:17.591Z,3796
2018-07-07T07:15:26.498Z,4012
2018-07-07T07:16:35.204Z,4096
2018-07-07T07:17:43.797Z,4004
2018-07-07T07:18:52.455Z,4040
2018-07-07T07:20:01.436Z,4072
2018-07-07T07:21:10.001Z,4012
2018-07-07T07:22:18.648Z,3792
2018-07-07T07:23:27.737Z,3752
2018-07-07T07:24:36.384Z,3536
2018-07-07T07:25:45.029Z,3432
2018-07-07T07:26:53.671Z,3240
2018-07-07T07:28:02.324Z,3008
2018-07-07T07:29:10.979Z,3520
2018-07-07T07:30:19.623Z,3428
2018-07-07T07:31:28.275Z,3272
2018-07-07T07:32:36.913Z,3120
2018-07-07T07:33:45.571Z,3152
2018-07-07T07:34:54.216Z,3112
2018-07-07T07:36:02.870Z,3072
2018-07-07T07:37:11.510Z,3048
2018-07-07T07:38:20.168Z,3024
2018-07-07T07:39:28.812Z,2992
2018-07-07T07:40:37.464Z,2972
2018-07-07T07:41:46.103Z,2960
2018-07-07T07:42:54.754Z,2944
2018-07-07T07:44:03.407Z,2932
2018-07-07T07:45:12.055Z,2920
2018-07-07T07:46:20.706Z,2912
2018-07-07T07:47:29.345Z,2904
2018-07-07T07:48:37.996Z,2892
2018-07-07T07:49:46.640Z,2872
2018-07-07T07:50:55.297Z,2860
2018-07-07T07:52:03.936Z,2852
2018-07-07T07:53:12.848Z,2856
2018-07-07T07:54:21.492Z,2864
2018-07-07T07:55:30.409Z,2880
2018-07-07T07:56:39.053Z,2880
2018-07-07T07:57:47.971Z,2892
2018-07-07T07:58:56.922Z,2908
2018-07-07T08:00:05.528Z,2880
2018-07-07T08:01:14.176Z,2860
2018-07-07T08:02:22.822Z,2880
2018-07-07T08:03:31.473Z,2884
2018-07-07T08:04:40.117Z,2904
2018-07-07T08:05:48.768Z,2904
2018-07-07T08:06:57.419Z,2880
2018-07-07T08:08:06.326Z,2860
2018-07-07T08:09:14.969Z,2872
2018-07-07T08:10:23.623Z,2892
2018-07-07T08:11:32.270Z,2872
2018-07-07T08:12:40.917Z,2860
2018-07-07T08:13:49.828Z,2848
2018-07-07T08:14:58.481Z,2856
2018-07-07T08:16:07.126Z,2844
2018-07-07T08:17:15.775Z,2852
2018-07-07T08:18:24.418Z,2844
2018-07-07T08:19:33.068Z,2848
2018-07-07T08:20:41.983Z,2856
2018-07-07T08:21:50.910Z,2872
2018-07-07T08:23:00.127Z,2856
2018-07-07T08:24:09.118Z,2868
2018-07-07T08:25:17.765Z,2896
2018-07-07T08:26:26.412Z,2892
2018-07-07T08:27:35.065Z,2912
2018-07-07T08:28:43.707Z,2924
2018-07-07T08:29:52.353Z,2928
2018-07-07T08:31:01.001Z,2916
2018-07-07T08:32:09.655Z,2924
2018-07-07T08:33:18.299Z,2920
2018-07-07T08:34:27.311Z,2944
2018-07-07T08:35:35.930Z,2996
2018-07-07T08:36:44.583Z,3024
2018-07-07T08:37:53.228Z,2916
2018-07-07T08:39:01.878Z,2960
2018-07-07T08:40:10.524Z,2948
2018-07-07T08:41:19.174Z,2972
2018-07-07T08:42:27.831Z,3140
2018-07-07T08:43:36.482Z,3252
2018-07-07T08:44:45.132Z,3164
2018-07-07T08:45:53.776Z,3132
2018-07-07T08:47:02.432Z,3092
2018-07-07T08:48:11.080Z,3004
2018-07-07T08:49:19.754Z,2920
2018-07-07T08:50:28.707Z,2836
2018-07-07T08:51:37.359Z,2848
2018-07-07T08:52:46.005Z,2912
2018-07-07T08:53:54.657Z,2992
2018-07-07T08:55:03.310Z,2964
2018-07-07T08:56:12.225Z,2928
2018-07-07T08:57:20.872Z,2928
2018-07-07T08:58:29.519Z,2932
2018-07-07T08:59:38.167Z,2884
2018-07-07T09:00:46.819Z,2856
2018-07-07T09:01:55.734Z,2856
2018-07-07T09:03:04.384Z,2856
2018-07-07T09:04:13.028Z,2856
2018-07-07T09:05:21.682Z,2824
2018-07-07T09:06:30.332Z,2824
2018-07-07T09:07:39.319Z,2828
2018-07-07T09:08:47.907Z,2808
2018-07-07T09:09:56.562Z,2864
2018-07-07T09:11:05.474Z,2864
2018-07-07T09:12:14.128Z,2844
2018-07-07T09:13:23.049Z,2844
2018-07-07T09:14:31.966Z,2844
2018-07-07T09:15:40.613Z,2780
2018-07-07T09:16:49.264Z,2668
2018-07-07T09:17:57.914Z,2776
2018-07-07T09:19:06.824Z,2776
2018-07-07T09:20:15.473Z,2780
2018-07-07T09:21:24.124Z,2820
2018-07-07T09:22:32.776Z,2784
2018-07-07T09:23:41.424Z,2796
2018-07-07T09:24:50.073Z,2812
2018-07-07T09:25:58.721Z,2788
2018-07-07T09:27:07.378Z,2820
2018-07-07T09:28:16.020Z,2836
2018-07-07T09:29:24.678Z,2812
2018-07-07T09:30:33.583Z,2832
2018-07-07T09:31:42.237Z,2840
2018-07-07T09:32:50.884Z,2860
2018-07-07T09:33:59.532Z,2856
2018-07-07T09:35:08.177Z,2852
2018-07-07T09:36:16.825Z,2860
2018-07-07T09:37:25.480Z,2844
2018-07-07T09:38:34.127Z,2896
2018-07-07T09:39:42.779Z,2904
2018-07-07T09:40:51.426Z,2880
2018-07-07T09:42:00.080Z,2888
2018-07-07T09:43:08.728Z,2888
2018-07-07T09:44:18.184Z,2888
2018-07-07T09:45:26.829Z,2904
2018-07-07T09:46:35.482Z,2916
2018-07-07T09:47:44.136Z,2952
2018-07-07T09:48:53.051Z,2984
2018-07-07T09:50:01.714Z,2956
2018-07-07T09:51:11.169Z,2972
2018-07-07T09:52:19.817Z,3000
2018-07-07T09:53:28.998Z,2996
2018-07-07T09:54:37.653Z,3000
2018-07-07T09:55:46.294Z,2996
2018-07-07T09:56:54.949Z,3044
2018-07-07T09:58:03.594Z,3048
2018-07-07T09:59:12.254Z,3100
2018-07-07T10:00:20.894Z,3052
2018-07-07T10:01:29.549Z,3056
2018-07-07T10:02:38.455Z,3124
2018-07-07T10:03:47.113Z,3092
2018-07-07T10:04:56.018Z,3040
2018-07-07T10:06:04.932Z,3064
2018-07-07T10:07:13.579Z,3020
2018-07-07T10:08:22.239Z,3068
2018-07-07T10:09:30.884Z,3092
2018-07-07T10:10:39.532Z,3096
2018-07-07T10:11:48.706Z,3088
2018-07-07T10:12:57.356Z,3080
2018-07-07T10:14:06.012Z,3104
2018-07-07T10:15:14.656Z,3104
2018-07-07T10:16:23.311Z,3176
2018-07-07T10:17:31.955Z,3156
2018-07-07T10:18:40.613Z,3216
2018-07-07T10:19:49.260Z,3196
2018-07-07T10:20:57.913Z,3164
2018-07-07T10:22:06.841Z,3184
2018-07-07T10:23:15.499Z,3012
2018-07-07T10:24:24.410Z,3208
2018-07-07T10:25:33.065Z,3216
2018-07-07T10:26:41.969Z,3216
2018-07-07T10:27:50.624Z,3140
2018-07-07T10:28:59.275Z,3216
2018-07-07T10:30:08.457Z,3200
2018-07-07T10:31:17.110Z,3176
2018-07-07T10:32:25.752Z,3192
2018-07-07T10:33:34.413Z,3248
2018-07-07T10:34:43.054Z,3276
2018-07-07T10:35:51.983Z,3276
2018-07-07T10:37:00.638Z,3288
2018-07-07T10:38:09.295Z,3304
2018-07-07T10:39:17.920Z,3316
2018-07-07T10:40:26.582Z,3304
2018-07-07T10:41:35.222Z,3260
2018-07-07T10:42:44.139Z,3220
2018-07-07T10:43:52.786Z,3204
2018-07-07T10:45:01.448Z,3248
2018-07-07T10:46:10.189Z,3280
2018-07-07T10:47:18.758Z,3264
2018-07-07T10:48:27.732Z,3264
2018-07-07T10:49:36.381Z,3256
2018-07-07T10:50:45.046Z,3264
2018-07-07T10:51:53.965Z,3268
2018-07-07T10:53:02.664Z,3240
2018-07-07T10:54:11.631Z,3288
2018-07-07T10:55:20.291Z,3268
2018-07-07T10:56:28.937Z,3304
2018-07-07T10:57:38.116Z,3308
2018-07-07T10:58:46.770Z,3316
2018-07-07T10:59:55.738Z,3320
2018-07-07T11:01:04.623Z,3248
2018-07-07T11:02:13.276Z,3292
2018-07-07T11:03:21.917Z,3312
2018-07-07T11:04:30.571Z,3324
2018-07-07T11:05:39.227Z,3324
2018-07-07T11:06:48.144Z,3328
2018-07-07T11:07:57.059Z,3340
2018-07-07T11:09:05.710Z,3320
2018-07-07T11:10:14.628Z,3296
2018-07-07T11:11:23.274Z,3304
2018-07-07T11:12:31.936Z,3296
2018-07-07T11:13:40.576Z,3296
2018-07-07T11:14:49.233Z,3336
2018-07-07T11:15:57.879Z,3368
2018-07-07T11:17:07.086Z,3368
2018-07-07T11:18:15.992Z,3392
2018-07-07T11:19:25.434Z,3384
2018-07-07T11:20:34.085Z,3404
2018-07-07T11:21:42.742Z,3440
2018-07-07T11:22:51.395Z,3420
2018-07-07T11:24:00.042Z,3464
2018-07-07T11:25:08.695Z,3468
2018-07-07T11:26:17.347Z,3496
2018-07-07T11:27:26.007Z,3568
2018-07-07T11:28:34.951Z,3556
2018-07-07T11:29:43.639Z,3556
2018-07-07T11:30:52.254Z,3516
2018-07-07T11:32:00.910Z,3712
2018-07-07T11:33:09.561Z,2744
2018-07-07T11:34:18.218Z,1964
2018-07-07T11:35:26.860Z,3128
2018-07-07T11:36:35.631Z,3356
2018-07-07T11:37:44.576Z,3488
2018-07-07T11:38:53.227Z,3528
2018-07-07T11:40:01.875Z,3576
2018-07-07T11:41:10.529Z,3708
2018-07-07T11:42:19.207Z,3732
2018-07-07T11:43:27.846Z,3720
2018-07-07T11:44:36.759Z,3640
2018-07-07T11:45:45.404Z,3512
2018-07-07T11:46:54.060Z,3492
2018-07-07T11:48:02.708Z,3296
2018-07-07T11:49:11.368Z,3500
2018-07-07T11:50:20.184Z,3516
2018-07-07T11:51:28.665Z,3540
2018-07-07T11:52:37.317Z,3620
2018-07-07T11:53:45.973Z,3692
2018-07-07T11:54:54.621Z,3764
2018-07-07T11:56:03.276Z,3840
2018-07-07T11:57:11.981Z,3920
2018-07-07T11:58:20.583Z,3916
2018-07-07T11:59:29.493Z,3788
2018-07-07T12:00:38.144Z,3608
2018-07-07T12:01:46.797Z,2964
2018-07-07T12:02:55.449Z,3464
2018-07-07T12:04:04.375Z,3492
2018-07-07T12:05:13.026Z,3620
2018-07-07T12:06:21.681Z,3624
2018-07-07T12:07:30.332Z,3624
2018-07-07T12:08:39.516Z,3600
2018-07-07T12:09:48.166Z,3584
2018-07-07T12:10:56.817Z,3560
2018-07-07T12:12:05.464Z,3580
2018-07-07T12:13:14.122Z,3592
2018-07-07T12:14:22.774Z,3608
2018-07-07T12:15:31.430Z,3612
2018-07-07T12:16:40.076Z,3604
2018-07-07T12:17:48.730Z,3500
2018-07-07T12:18:57.653Z,3548
2018-07-07T12:20:06.314Z,3532
2018-07-07T12:21:14.964Z,3624
2018-07-07T12:22:23.609Z,3396
2018-07-07T12:23:32.522Z,3204
2018-07-07T12:24:41.197Z,3764
2018-07-07T12:25:49.835Z,3820
2018-07-07T12:26:58.740Z,3848
2018-07-07T12:28:07.392Z,3900
2018-07-07T12:29:16.044Z,3916
2018-07-07T12:30:24.700Z,3912
2018-07-07T12:31:33.358Z,3676
2018-07-07T12:32:42.273Z,3876
2018-07-07T12:33:50.922Z,3888
2018-07-07T12:34:59.838Z,3724
2018-07-07T12:36:08.487Z,3680
2018-07-07T12:37:17.140Z,3780
2018-07-07T12:38:26.053Z,3492
2018-07-07T12:39:34.703Z,3476
2018-07-07T12:40:43.735Z,3364
2018-07-07T12:41:52.332Z,3444
2018-07-07T12:43:00.987Z,3432
2018-07-07T12:44:09.907Z,3476
2018-07-07T12:45:18.565Z,3552
2018-07-07T12:46:27.216Z,3668
2018-07-07T12:47:36.141Z,3580
2018-07-07T12:48:44.797Z,3536
2018-07-07T12:49:53.446Z,3644
2018-07-07T12:51:02.102Z,3516
2018-07-07T12:52:11.016Z,3628
2018-07-07T12:53:19.669Z,4044
2018-07-07T12:54:28.328Z,3936
2018-07-07T12:55:36.981Z,3900
2018-07-07T12:56:45.631Z,3800
2018-07-07T12:57:54.278Z,3880
2018-07-07T12:59:03.198Z,3816
2018-07-07T13:00:11.855Z,3780
2018-07-07T13:01:20.810Z,3648
2018-07-07T13:02:29.842Z,3544
2018-07-07T13:03:38.501Z,3544
2018-07-07T13:04:47.162Z,3680
2018-07-07T13:05:55.813Z,3720
2018-07-07T13:07:04.486Z,2376
2018-07-07T13:08:13.124Z,3700
2018-07-07T13:09:21.770Z,3680
2018-07-07T13:10:30.423Z,3716
2018-07-07T13:11:39.072Z,3904
2018-07-07T13:12:47.732Z,3760
2018-07-07T13:13:56.381Z,4004
2018-07-07T13:15:05.036Z,4064
2018-07-07T13:16:13.718Z,4016
2018-07-07T13:17:22.339Z,4280
2018-07-07T13:18:30.991Z,4284
2018-07-07T13:19:39.642Z,4408
2018-07-07T13:20:48.732Z,4588
2018-07-07T13:21:57.279Z,4684
2018-07-07T13:23:05.931Z,4664
2018-07-07T13:24:14.586Z,4720
2018-07-07T13:25:23.512Z,4768
2018-07-07T13:26:32.548Z,4800
2018-07-07T13:27:41.165Z,4748
2018-07-07T13:28:49.817Z,4380
2018-07-07T13:29:58.475Z,4180
2018-07-07T13:31:07.126Z,4256
2018-07-07T13:32:16.063Z,4316
2018-07-07T13:33:24.783Z,4084
2018-07-07T13:34:33.364Z,4392
2018-07-07T13:35:42.324Z,4248
2018-07-07T13:36:50.940Z,4556
2018-07-07T13:37:59.591Z,4524
2018-07-07T13:39:08.240Z,4296
2018-07-07T13:40:16.897Z,4124
2018-07-07T13:41:25.549Z,4076
2018-07-07T13:42:34.201Z,3992
2018-07-07T13:43:42.849Z,3932
2018-07-07T13:44:51.510Z,3584
2018-07-07T13:46:00.437Z,3420
2018-07-07T13:47:09.088Z,3252
2018-07-07T13:48:17.732Z,3632
2018-07-07T13:49:26.651Z,4056
2018-07-07T13:50:35.309Z,4308
2018-07-07T13:51:43.963Z,4384
2018-07-07T13:52:52.695Z,4496
2018-07-07T13:54:01.269Z,4476
2018-07-07T13:55:09.928Z,4472
2018-07-07T13:56:18.580Z,4212
2018-07-07T13:57:27.239Z,4020
2018-07-07T13:58:35.883Z,4052
2018-07-07T13:59:44.541Z,3872
2018-07-07T14:00:53.190Z,3604
2018-07-07T14:02:01.850Z,3660
2018-07-07T14:03:10.493Z,3684
2018-07-07T14:04:19.149Z,3736
2018-07-07T14:05:27.800Z,3756
2018-07-07T14:06:36.724Z,3692
2018-07-07T14:07:45.378Z,2432
2018-07-07T14:08:54.287Z,3360
2018-07-07T14:10:03.200Z,3384
2018-07-07T14:11:12.111Z,3472
2018-07-07T14:12:20.776Z,3456
2018-07-07T14:13:29.423Z,3424
2018-07-07T14:14:38.085Z,3548
2018-07-07T14:15:46.727Z,3696
2018-07-07T14:16:56.271Z,3828
2018-07-07T14:18:05.110Z,3820
2018-07-07T14:19:13.767Z,3832
2018-07-07T14:20:22.425Z,3696
2018-07-07T14:21:31.348Z,3596
2018-07-07T14:22:40.000Z,3456
2018-07-07T14:23:48.659Z,3276
2018-07-07T14:24:57.825Z,3180
2018-07-07T14:26:06.747Z,3052
2018-07-07T14:27:15.672Z,3108
2018-07-07T14:28:24.596Z,2992
2018-07-07T14:29:33.245Z,3108
2018-07-07T14:30:42.151Z,3196
2018-07-07T14:31:51.138Z,3280
2018-07-07T14:32:59.740Z,3284
2018-07-07T14:34:08.401Z,3252
2018-07-07T14:35:17.044Z,3040
2018-07-07T14:36:25.971Z,3004
2018-07-07T14:37:34.622Z,2992
2018-07-07T14:38:43.282Z,2924
2018-07-07T14:39:52.190Z,2932
2018-07-07T14:41:00.845Z,2964
2018-07-07T14:42:09.496Z,2920
2018-07-07T14:43:18.153Z,2880
2018-07-07T14:44:26.806Z,2840
2018-07-07T14:45:35.451Z,2984
2018-07-07T14:46:44.113Z,3000
2018-07-07T14:47:52.761Z,2996
2018-07-07T14:49:01.421Z,2948
2018-07-07T14:50:10.077Z,2916
2018-07-07T14:51:18.731Z,2884
2018-07-07T14:52:27.383Z,2844
2018-07-07T14:53:36.044Z,2752
2018-07-07T14:54:44.960Z,2772
2018-07-07T14:55:53.879Z,2744
2018-07-07T14:57:02.532Z,2668
2018-07-07T14:58:11.283Z,2764
2018-07-07T14:59:19.843Z,2716
2018-07-07T15:00:28.497Z,2596
2018-07-07T15:01:37.144Z,2648
2018-07-07T15:02:46.060Z,2732
2018-07-07T15:03:54.725Z,2764
2018-07-07T15:05:03.375Z,2752
2018-07-07T15:06:12.033Z,2656
2018-07-07T15:07:20.680Z,2720
2018-07-07T15:08:29.335Z,2820
2018-07-07T15:09:37.985Z,2840
2018-07-07T15:10:46.645Z,2864
2018-07-07T15:11:55.561Z,2916
2018-07-07T15:13:04.213Z,2912
2018-07-07T15:14:12.868Z,2892
2018-07-07T15:15:21.788Z,2792
2018-07-07T15:16:30.437Z,2616
2018-07-07T15:17:39.091Z,2556
2018-07-07T15:18:47.740Z,2620
2018-07-07T15:19:56.404Z,2724
2018-07-07T15:21:05.316Z,2756
2018-07-07T15:22:13.969Z,2744
2018-07-07T15:23:22.617Z,2696
2018-07-07T15:24:31.273Z,2784
2018-07-07T15:25:39.931Z,2820
2018-07-07T15:26:48.583Z,2792
2018-07-07T15:27:57.234Z,2784
2018-07-07T15:29:05.884Z,2800
2018-07-07T15:30:14.541Z,2708
2018-07-07T15:31:23.194Z,2700
2018-07-07T15:32:32.114Z,2812
2018-07-07T15:33:40.760Z,2896
2018-07-07T15:34:49.418Z,2888